createdAt,value
2023-05-13T00:01:08.053Z,13.90
2023-05-13T00:03:34.503Z,12.55
2023-05-13T00:06:01.288Z,14.07
2023-05-13T00:08:27.553Z,11.45
2023-05-13T00:10:53.758Z,11.15
2023-05-13T00:13:20.207Z,13.10
2023-05-13T00:15:46.431Z,14.05
2023-05-13T00:18:12.831Z,12.15
2023-05-13T00:20:39.040Z,12.18
2023-05-13T00:23:05.317Z,13.07
2023-05-13T00:25:31.544Z,13.50
2023-05-13T00:27:57.733Z,14.23
2023-05-13T00:30:24.071Z,12.65
2023-05-13T00:32:50.599Z,15.70
2023-05-13T00:35:16.976Z,13.18
2023-05-13T00:37:43.654Z,14.75
2023-05-13T00:40:16.096Z,13.85
2023-05-13T00:42:42.292Z,12.57
2023-05-13T00:45:08.835Z,12.98
2023-05-13T00:47:35.155Z,12.60
2023-05-13T00:50:01.647Z,13.45
2023-05-13T00:52:27.902Z,11.80
2023-05-13T00:54:54.135Z,14.50
2023-05-13T00:57:21.033Z,16.10
2023-05-13T00:59:47.258Z,17.02
2023-05-13T01:02:17.831Z,13.57
2023-05-13T01:05:02.786Z,14.17
2023-05-13T01:07:38.081Z,15.18
2023-05-13T01:10:07.248Z,16.35
2023-05-13T01:12:34.979Z,15.15
2023-05-13T01:15:05.933Z,18.10
2023-05-13T01:17:34.035Z,15.85
2023-05-13T01:20:00.612Z,16.80
2023-05-13T01:22:27.664Z,17.52
2023-05-13T01:24:53.908Z,16.77
2023-05-13T01:27:20.218Z,21.70
2023-05-13T01:29:47.653Z,18.77
2023-05-13T01:32:14.037Z,16.98
2023-05-13T01:34:40.899Z,16.05
2023-05-13T01:37:07.292Z,18.17
2023-05-13T01:39:36.615Z,21.35
2023-05-13T01:42:03.169Z,18.38
2023-05-13T01:44:29.445Z,16.73
2023-05-13T01:46:55.754Z,20.77
2023-05-13T01:49:22.029Z,17.27
2023-05-13T01:51:48.231Z,17.10
2023-05-13T01:54:14.463Z,26.23
2023-05-13T01:56:40.736Z,20.13
2023-05-13T01:59:09.944Z,17.40
2023-05-13T02:01:36.858Z,17.35
2023-05-13T02:04:03.760Z,18.70
2023-05-13T02:06:29.996Z,17.73
2023-05-13T02:08:56.203Z,18.25
2023-05-13T02:11:22.532Z,18.15
2023-05-13T02:13:48.766Z,16.73
2023-05-13T02:16:16.264Z,18.50
2023-05-13T02:18:42.595Z,17.58
2023-05-13T02:21:08.935Z,16.70
2023-05-13T02:23:35.151Z,17.15
2023-05-13T02:26:01.344Z,15.68
2023-05-13T02:28:27.538Z,15.82
2023-05-13T02:30:53.749Z,16.63
2023-05-13T02:33:19.980Z,15.77
2023-05-13T02:35:46.165Z,17.55
2023-05-13T02:38:13.039Z,17.45
2023-05-13T02:40:39.250Z,18.30
2023-05-13T02:43:05.558Z,17.85
2023-05-13T02:45:31.756Z,16.02
2023-05-13T02:47:57.980Z,15.73
2023-05-13T02:50:24.407Z,14.95
2023-05-13T02:52:50.669Z,16.33
2023-05-13T02:55:16.925Z,16.15
2023-05-13T02:57:43.148Z,16.27
2023-05-13T03:00:09.817Z,18.42
2023-05-13T03:02:37.199Z,18.85
2023-05-13T03:05:03.908Z,18.58
2023-05-13T03:07:30.085Z,22.65
2023-05-13T03:09:56.293Z,20.27
2023-05-13T03:12:22.546Z,19.70
2023-05-13T03:14:48.850Z,21.15
2023-05-13T03:17:15.045Z,22.00
2023-05-13T03:19:41.253Z,24.13
2023-05-13T03:22:07.499Z,22.23
2023-05-13T03:24:33.753Z,25.15
2023-05-13T03:27:00.025Z,26.95
2023-05-13T03:29:26.260Z,26.25
2023-05-13T03:31:52.790Z,24.38
2023-05-13T03:34:19.147Z,26.40
2023-05-13T03:36:45.355Z,23.80
2023-05-13T03:39:11.609Z,24.67
2023-05-13T03:41:37.839Z,25.65
2023-05-13T03:44:04.169Z,22.20
2023-05-13T03:46:30.528Z,23.08
2023-05-13T03:48:57.043Z,25.20
2023-05-13T03:51:23.247Z,24.13
2023-05-13T03:53:49.450Z,26.15
2023-05-13T03:56:15.694Z,25.90
2023-05-13T03:58:42.218Z,25.15
2023-05-13T04:01:08.503Z,24.55
2023-05-13T04:03:34.862Z,22.80
2023-05-13T04:06:01.074Z,24.45
2023-05-13T04:08:27.445Z,24.52
2023-05-13T04:10:54.329Z,27.35
2023-05-13T04:13:20.638Z,22.52
2023-05-13T04:15:46.926Z,26.25
2023-05-13T04:18:13.272Z,29.33
2023-05-13T04:20:39.823Z,29.70
2023-05-13T04:23:06.294Z,29.73
2023-05-13T04:25:32.716Z,28.88
2023-05-13T04:27:58.914Z,30.92
2023-05-13T04:30:25.271Z,27.75
2023-05-13T04:32:51.563Z,28.20
2023-05-13T04:35:17.868Z,27.10
2023-05-13T04:37:44.801Z,28.70
2023-05-13T04:40:11.221Z,29.10
2023-05-13T04:42:37.536Z,24.85
2023-05-13T04:45:03.926Z,25.15
2023-05-13T04:47:30.298Z,22.95
2023-05-13T04:49:56.534Z,30.58
2023-05-13T04:52:23.238Z,24.90
2023-05-13T04:54:49.507Z,28.58
2023-05-13T04:57:15.742Z,28.48
2023-05-13T04:59:41.943Z,24.15
2023-05-13T05:02:08.207Z,29.02
2023-05-13T05:04:34.477Z,22.67
2023-05-13T05:07:00.688Z,27.90
2023-05-13T05:09:26.900Z,24.67
2023-05-13T05:11:53.130Z,24.35
2023-05-13T05:14:20.132Z,22.08
2023-05-13T05:16:46.353Z,21.98
2023-05-13T05:19:12.593Z,21.60
2023-05-13T05:21:38.873Z,22.85
2023-05-13T05:24:05.757Z,20.05
2023-05-13T05:26:31.990Z,18.20
2023-05-13T05:28:58.294Z,18.63
2023-05-13T05:31:24.670Z,20.25
2023-05-13T05:33:51.014Z,17.20
2023-05-13T05:36:17.490Z,17.77
2023-05-13T05:38:43.740Z,17.90
2023-05-13T05:41:10.023Z,15.15
2023-05-13T05:43:36.230Z,18.13
2023-05-13T05:46:02.497Z,16.83
2023-05-13T05:48:28.852Z,18.92
2023-05-13T05:50:56.211Z,16.33
2023-05-13T05:53:22.476Z,15.43
2023-05-13T05:55:49.377Z,14.93
2023-05-13T05:58:16.897Z,16.92
2023-05-13T06:00:43.218Z,14.70
2023-05-13T06:03:09.778Z,14.88
2023-05-13T06:05:36.192Z,14.82
2023-05-13T06:08:02.413Z,15.95
2023-05-13T06:10:28.737Z,12.65
2023-05-13T06:12:55.055Z,12.30
2023-05-13T06:15:21.293Z,13.63
2023-05-13T06:17:47.575Z,14.02
2023-05-13T06:20:14.022Z,13.20
2023-05-13T06:22:41.037Z,12.95
2023-05-13T06:25:07.400Z,12.65
2023-05-13T06:27:33.996Z,12.55
2023-05-13T06:30:00.761Z,13.88
2023-05-13T06:32:26.982Z,12.77
2023-05-13T06:34:55.704Z,12.25
2023-05-13T06:37:22.222Z,12.43
2023-05-13T06:39:48.485Z,11.15
2023-05-13T06:42:14.717Z,11.65
2023-05-13T06:44:40.954Z,13.38
2023-05-13T06:47:08.518Z,10.10
2023-05-13T06:49:34.777Z,10.00
2023-05-13T06:52:01.019Z,10.85
2023-05-13T06:54:27.612Z,11.18
2023-05-13T06:56:54.581Z,10.38
2023-05-13T06:59:21.669Z,10.75
2023-05-13T07:01:47.984Z,11.52
2023-05-13T07:04:14.976Z,10.73
2023-05-13T07:06:41.320Z,9.93
2023-05-13T07:09:09.562Z,9.93
2023-05-13T07:11:36.120Z,10.60
2023-05-13T07:14:02.348Z,8.32
2023-05-13T07:16:28.588Z,9.18
2023-05-13T07:18:54.845Z,9.98
2023-05-13T07:21:21.728Z,10.48
2023-05-13T07:23:48.333Z,7.88
2023-05-13T07:26:14.733Z,9.07
2023-05-13T07:28:40.921Z,8.07
2023-05-13T07:31:07.497Z,7.30
2023-05-13T07:33:33.796Z,8.02
2023-05-13T07:36:00.044Z,7.82
2023-05-13T07:38:26.456Z,8.15
2023-05-13T07:40:52.689Z,9.90
2023-05-13T07:43:23.893Z,6.80
2023-05-13T07:45:51.087Z,9.85
2023-05-13T07:48:17.812Z,7.60
2023-05-13T07:50:44.711Z,5.20
2023-05-13T07:53:10.929Z,5.97
2023-05-13T07:55:37.155Z,7.03
2023-05-13T07:58:03.432Z,6.90
2023-05-13T08:00:29.698Z,6.20
2023-05-13T08:02:56.136Z,8.40
2023-05-13T08:05:22.597Z,6.60
2023-05-13T08:07:49.083Z,6.72
2023-05-13T08:10:15.487Z,7.65
2023-05-13T08:12:41.916Z,7.85
2023-05-13T08:15:08.640Z,6.20
2023-05-13T08:17:35.020Z,7.70
2023-05-13T08:20:01.910Z,6.78
2023-05-13T08:22:28.131Z,7.22
2023-05-13T08:24:54.606Z,7.00
2023-05-13T08:27:20.900Z,7.20
2023-05-13T08:29:47.171Z,8.05
2023-05-13T08:32:13.654Z,7.00
2023-05-13T08:34:40.223Z,6.47
2023-05-13T08:37:06.453Z,9.65
2023-05-13T08:39:32.687Z,6.78
2023-05-13T08:41:59.931Z,5.95
2023-05-13T08:44:29.193Z,6.70
2023-05-13T08:47:02.044Z,7.18
2023-05-13T08:49:28.463Z,7.35
2023-05-13T08:51:54.753Z,9.13
2023-05-13T08:54:23.875Z,7.72
2023-05-13T08:56:51.148Z,8.32
2023-05-13T08:59:18.005Z,7.03
2023-05-13T09:01:44.818Z,8.15
2023-05-13T09:04:11.497Z,6.30
2023-05-13T09:06:37.812Z,7.00
2023-05-13T09:09:05.717Z,7.13
2023-05-13T09:11:33.858Z,7.80
2023-05-13T09:14:01.766Z,7.25
2023-05-13T09:16:28.490Z,7.30
2023-05-13T09:19:03.608Z,7.78
2023-05-13T09:21:31.696Z,6.28
2023-05-13T09:24:09.577Z,6.75
2023-05-13T09:26:37.544Z,6.88
2023-05-13T09:29:23.041Z,5.75
2023-05-13T09:31:59.481Z,6.28
2023-05-13T09:34:26.815Z,6.15
2023-05-13T09:37:03.403Z,7.30
2023-05-13T09:39:32.942Z,7.63
2023-05-13T09:42:01.716Z,6.82
2023-05-13T09:44:29.715Z,7.53
2023-05-13T09:46:55.974Z,10.20
2023-05-13T09:49:23.028Z,9.85
2023-05-13T09:51:49.253Z,9.02
2023-05-13T09:54:16.254Z,8.65
2023-05-13T09:56:43.097Z,8.07
2023-05-13T09:59:09.786Z,8.88
2023-05-13T10:01:39.594Z,8.93
2023-05-13T10:04:06.273Z,8.30
2023-05-13T10:06:33.131Z,7.88
2023-05-13T10:09:01.582Z,7.35
2023-05-13T10:11:29.599Z,8.65
2023-05-13T10:13:58.661Z,8.00
2023-05-13T10:16:25.250Z,8.27
2023-05-13T10:18:51.806Z,7.57
2023-05-13T10:21:19.152Z,9.50
2023-05-13T10:23:51.880Z,8.55
2023-05-13T10:26:18.921Z,8.00
2023-05-13T10:28:45.404Z,8.90
2023-05-13T10:31:11.624Z,8.35
2023-05-13T10:33:37.919Z,7.85
2023-05-13T10:36:04.072Z,8.60
2023-05-13T10:38:43.438Z,8.13
2023-05-13T10:41:25.349Z,9.20
2023-05-13T10:43:56.602Z,8.75
2023-05-13T10:48:55.774Z,8.77
2023-05-13T10:51:25.821Z,8.90
2023-05-13T10:53:52.866Z,12.00
2023-05-13T10:56:22.971Z,10.90
2023-05-13T10:58:59.637Z,9.55
2023-05-13T11:01:35.881Z,9.40
2023-05-13T11:04:03.754Z,11.05
2023-05-13T11:06:30.120Z,10.75
2023-05-13T11:08:56.582Z,9.90
2023-05-13T11:11:24.086Z,8.70
2023-05-13T11:13:54.373Z,10.43
2023-05-13T11:16:21.037Z,8.77
2023-05-13T11:18:47.508Z,8.73
2023-05-13T11:21:13.804Z,9.98
2023-05-13T11:24:00.821Z,11.45
2023-05-13T11:26:28.490Z,7.95
2023-05-13T11:28:54.754Z,8.20
2023-05-13T11:31:21.639Z,9.05
2023-05-13T11:34:07.101Z,9.65
2023-05-13T11:36:34.628Z,10.35
2023-05-13T11:39:06.833Z,4.32
2023-05-13T11:41:33.426Z,4.70
2023-05-13T11:43:59.893Z,3.88
2023-05-13T11:46:26.153Z,3.90
2023-05-13T11:48:52.428Z,4.55
2023-05-13T11:51:18.714Z,3.83
2023-05-13T11:53:44.961Z,4.10
2023-05-13T11:56:12.682Z,3.45
2023-05-13T11:58:38.934Z,5.25
2023-05-13T12:01:05.137Z,4.68
2023-05-13T12:03:31.543Z,5.00
2023-05-13T12:06:03.936Z,4.75
2023-05-13T12:08:30.207Z,5.47
2023-05-13T12:10:56.486Z,4.97
2023-05-13T12:13:22.799Z,4.55
2023-05-13T12:15:49.622Z,7.93
2023-05-13T12:18:16.093Z,6.35
2023-05-13T12:20:42.326Z,4.88
2023-05-13T12:23:11.458Z,5.07
2023-05-13T12:25:41.858Z,9.15
2023-05-13T12:28:20.824Z,7.13
2023-05-13T12:30:50.507Z,4.97
2023-05-13T12:33:17.614Z,4.82
2023-05-13T12:35:44.408Z,5.70
2023-05-13T12:38:14.118Z,4.22
2023-05-13T12:40:40.328Z,5.32
2023-05-13T12:43:06.560Z,5.13
2023-05-13T12:45:33.416Z,4.50
2023-05-13T12:47:59.908Z,5.32
2023-05-13T12:50:26.257Z,5.75
2023-05-13T12:52:53.208Z,6.22
2023-05-13T12:55:19.779Z,4.57
2023-05-13T12:58:15.326Z,5.53
2023-05-13T13:00:41.550Z,5.18
2023-05-13T13:03:08.384Z,5.53
2023-05-13T13:05:34.986Z,4.88
2023-05-13T13:08:01.760Z,4.15
2023-05-13T13:10:28.285Z,4.03
2023-05-13T13:12:54.485Z,4.03
2023-05-13T13:15:20.986Z,4.95
2023-05-13T13:17:47.586Z,4.32
2023-05-13T13:20:13.940Z,3.25
2023-05-13T13:22:40.173Z,3.75
2023-05-13T13:25:06.525Z,4.15
2023-05-13T13:27:33.553Z,3.50
2023-05-13T13:29:59.900Z,4.32
2023-05-13T13:32:26.229Z,5.28
2023-05-13T13:34:52.589Z,6.68
2023-05-13T13:37:18.815Z,5.35
2023-05-13T13:39:45.022Z,4.50
2023-05-13T13:42:11.364Z,5.63
2023-05-13T13:44:39.315Z,3.47
2023-05-13T13:47:05.660Z,3.28
2023-05-13T13:49:31.877Z,3.65
2023-05-13T13:51:58.096Z,4.65
2023-05-13T13:54:24.544Z,2.75
2023-05-13T13:56:50.800Z,2.88
2023-05-13T13:59:19.101Z,4.78
2023-05-13T14:01:45.493Z,2.75
2023-05-13T14:04:11.899Z,3.33
2023-05-13T14:06:38.249Z,3.38
2023-05-13T14:09:04.952Z,3.28
2023-05-13T14:11:31.270Z,4.32
2023-05-13T14:13:57.467Z,3.83
2023-05-13T14:16:23.849Z,3.58
2023-05-13T14:18:50.199Z,4.18
2023-05-13T14:21:16.538Z,4.45
2023-05-13T14:23:43.241Z,3.45
2023-05-13T14:26:10.715Z,3.78
2023-05-13T14:28:36.937Z,3.42
2023-05-13T14:31:03.253Z,4.90
2023-05-13T14:33:30.753Z,3.47
2023-05-13T14:35:57.022Z,4.07
2023-05-13T14:38:23.217Z,3.40
2023-05-13T14:40:49.449Z,6.60
2023-05-13T14:43:15.673Z,4.22
2023-05-13T14:45:41.868Z,3.55
2023-05-13T14:48:08.143Z,4.75
2023-05-13T14:50:35.436Z,5.32
2023-05-13T14:53:01.662Z,6.60
2023-05-13T14:55:27.885Z,4.82
2023-05-13T14:57:54.416Z,3.92
2023-05-13T15:00:21.016Z,5.90
2023-05-13T15:02:47.548Z,6.43
2023-05-13T15:05:13.875Z,3.97
2023-05-13T15:07:40.436Z,3.85
2023-05-13T15:10:06.856Z,4.28
2023-05-13T15:12:33.104Z,4.13
2023-05-13T15:14:59.340Z,4.68
2023-05-13T15:17:26.105Z,4.68
2023-05-13T15:19:52.313Z,4.70
2023-05-13T15:22:18.577Z,6.40
2023-05-13T15:24:44.819Z,5.13
2023-05-13T15:27:11.051Z,4.00
2023-05-13T15:29:37.276Z,3.35
2023-05-13T15:32:03.662Z,5.80
2023-05-13T15:34:29.867Z,6.53
2023-05-13T15:36:56.066Z,5.75
2023-05-13T15:39:22.833Z,5.55
2023-05-13T15:41:49.122Z,3.45
2023-05-13T15:44:16.108Z,3.65
2023-05-13T15:46:42.499Z,3.70
2023-05-13T15:49:09.337Z,4.82
2023-05-13T15:51:35.599Z,3.67
2023-05-13T15:54:01.989Z,3.50
2023-05-13T15:56:28.199Z,4.18
2023-05-13T15:58:55.736Z,3.58
2023-05-13T16:01:22.082Z,3.42
2023-05-13T16:03:48.739Z,4.10
2023-05-13T16:06:15.016Z,4.63
2023-05-13T16:08:41.238Z,6.28
2023-05-13T16:11:07.438Z,4.07
2023-05-13T16:13:33.677Z,3.88
2023-05-13T16:15:59.966Z,5.20
2023-05-13T16:18:26.664Z,4.60
2023-05-13T16:20:52.975Z,3.85
2023-05-13T16:23:19.176Z,4.20
2023-05-13T16:25:45.385Z,3.78
2023-05-13T16:28:11.637Z,4.15
2023-05-13T16:30:38.710Z,3.60
2023-05-13T16:33:05.277Z,3.47
2023-05-13T16:35:31.573Z,3.40
2023-05-13T16:37:57.800Z,4.03
2023-05-13T16:40:24.243Z,3.10
2023-05-13T16:42:51.373Z,5.25
2023-05-13T16:45:17.615Z,3.50
2023-05-13T16:47:43.942Z,3.45
2023-05-13T16:50:10.309Z,3.60
2023-05-13T16:52:36.538Z,4.20
2023-05-13T16:55:02.996Z,3.65
2023-05-13T16:57:29.244Z,3.80
2023-05-13T16:59:55.439Z,3.58
2023-05-13T17:02:21.745Z,4.22
2023-05-13T17:04:48.034Z,4.78
2023-05-13T17:07:14.270Z,16.02
2023-05-13T17:09:40.542Z,8.60
2023-05-13T17:12:06.901Z,7.43
2023-05-13T17:14:33.182Z,5.28
2023-05-13T17:16:59.568Z,5.32
2023-05-13T17:19:25.884Z,8.07
2023-05-13T17:21:52.543Z,4.80
2023-05-13T17:24:18.855Z,5.82
2023-05-13T17:26:45.128Z,4.28
2023-05-13T17:29:11.333Z,4.90
2023-05-13T17:31:37.673Z,4.55
2023-05-13T17:34:04.238Z,5.90
2023-05-13T17:36:32.480Z,6.68
2023-05-13T17:38:58.803Z,4.45
2023-05-13T17:41:24.995Z,5.20
2023-05-13T17:43:51.194Z,5.47
2023-05-13T17:46:17.556Z,7.13
2023-05-13T17:48:43.894Z,4.82
2023-05-13T17:51:12.136Z,6.30
2023-05-13T17:53:38.339Z,6.40
2023-05-13T17:56:08.105Z,5.50
2023-05-13T17:58:34.549Z,4.40
2023-05-13T18:01:00.798Z,5.15
2023-05-13T18:03:26.987Z,5.00
2023-05-13T18:05:53.256Z,4.82
2023-05-13T18:08:19.537Z,5.07
2023-05-13T18:10:46.669Z,5.15
2023-05-13T18:13:13.016Z,4.32
2023-05-13T18:15:39.282Z,4.65
2023-05-13T18:18:05.981Z,4.03
2023-05-13T18:20:32.807Z,5.22
2023-05-13T18:22:59.369Z,6.05
2023-05-13T18:25:25.806Z,4.68
2023-05-13T18:27:52.089Z,4.53
2023-05-13T18:30:18.451Z,5.45
2023-05-13T18:32:44.721Z,6.80
2023-05-13T18:35:11.007Z,5.00
2023-05-13T18:37:37.258Z,5.15
2023-05-13T18:40:03.694Z,5.22
2023-05-13T18:42:29.951Z,4.97
2023-05-13T18:44:56.157Z,5.10
2023-05-13T18:47:22.358Z,4.60
2023-05-13T18:49:48.575Z,4.95
2023-05-13T18:52:14.876Z,5.78
2023-05-13T18:54:41.485Z,7.03
2023-05-13T18:57:07.764Z,5.13
2023-05-13T18:59:33.950Z,4.72
2023-05-13T19:02:00.282Z,5.43
2023-05-13T19:04:26.816Z,4.75
2023-05-13T19:06:53.203Z,5.10
2023-05-13T19:09:21.353Z,4.78
2023-05-13T19:11:47.552Z,5.15
2023-05-13T19:14:13.750Z,5.35
2023-05-13T19:16:40.002Z,5.43
2023-05-13T19:19:06.379Z,5.05
2023-05-13T19:21:33.154Z,6.25
2023-05-13T19:23:59.406Z,5.97
2023-05-13T19:26:25.635Z,6.70
2023-05-13T19:28:52.036Z,7.20
2023-05-13T19:31:18.407Z,7.40
2023-05-13T19:33:46.189Z,6.00
2023-05-13T19:36:12.904Z,7.65
2023-05-13T19:38:39.181Z,6.70
2023-05-13T19:41:05.505Z,7.18
2023-05-13T19:43:31.758Z,6.70
2023-05-13T19:45:57.983Z,6.20
2023-05-13T19:48:24.267Z,6.30
2023-05-13T19:50:53.273Z,7.00
2023-05-13T19:53:20.572Z,7.55
2023-05-13T19:55:47.299Z,6.82
2023-05-13T19:58:13.582Z,6.80
2023-05-13T20:00:39.769Z,7.30
2023-05-13T20:03:06.199Z,6.88
2023-05-13T20:05:32.442Z,8.80
2023-05-13T20:07:58.632Z,7.60
2023-05-13T20:10:25.087Z,8.05
2023-05-13T20:12:51.443Z,8.02
2023-05-13T20:15:18.657Z,8.88
2023-05-13T20:17:45.492Z,7.03
2023-05-13T20:20:12.040Z,8.73
2023-05-13T20:22:38.308Z,10.25
2023-05-13T20:25:04.689Z,9.20
2023-05-13T20:27:30.963Z,9.07
2023-05-13T20:29:57.224Z,8.77
2023-05-13T20:32:25.060Z,9.40
2023-05-13T20:34:54.468Z,7.53
2023-05-13T20:37:23.509Z,8.85
2023-05-13T20:39:50.408Z,8.68
2023-05-13T20:42:16.857Z,8.38
2023-05-13T20:44:44.941Z,8.93
2023-05-13T20:47:11.229Z,9.73
2023-05-13T20:49:38.449Z,8.82
2023-05-13T20:52:06.350Z,8.93
2023-05-13T20:54:33.998Z,10.93
2023-05-13T20:57:02.869Z,14.77
2023-05-13T20:59:29.514Z,14.00
2023-05-13T21:01:55.726Z,15.18
2023-05-13T21:04:22.660Z,11.88
2023-05-13T21:06:48.877Z,11.10
2023-05-13T21:09:15.114Z,11.30
2023-05-13T21:11:41.367Z,11.15
2023-05-13T21:14:07.561Z,11.30
2023-05-13T21:16:35.812Z,10.77
2023-05-13T21:19:02.157Z,9.93
2023-05-13T21:21:28.442Z,11.38
2023-05-13T21:23:54.646Z,11.38
2023-05-13T21:26:21.801Z,11.25
2023-05-13T21:28:48.032Z,10.68
2023-05-13T21:31:14.312Z,10.85
2023-05-13T21:33:40.543Z,11.63
2023-05-13T21:36:06.868Z,11.82
2023-05-13T21:38:33.078Z,10.57
2023-05-13T21:40:59.625Z,10.80
2023-05-13T21:43:25.838Z,10.50
2023-05-13T21:45:52.050Z,14.20
2023-05-13T21:48:19.078Z,11.60
2023-05-13T21:50:45.445Z,14.05
2023-05-13T21:53:11.701Z,11.27
2023-05-13T21:55:37.936Z,11.82
2023-05-13T21:58:04.120Z,10.15
2023-05-13T22:00:31.421Z,11.85
2023-05-13T22:02:57.929Z,11.95
2023-05-13T22:05:24.232Z,10.98
2023-05-13T22:07:50.766Z,10.57
2023-05-13T22:10:16.995Z,11.18
2023-05-13T22:12:43.190Z,10.00
2023-05-13T22:15:09.667Z,10.52
2023-05-13T22:17:35.992Z,10.13
2023-05-13T22:20:02.281Z,10.77
2023-05-13T22:22:28.613Z,11.02
2023-05-13T22:24:54.852Z,10.73
2023-05-13T22:27:21.309Z,12.15
2023-05-13T22:29:47.516Z,11.02
2023-05-13T22:32:13.983Z,10.02
2023-05-13T22:34:40.375Z,10.48
2023-05-13T22:37:06.738Z,11.43
2023-05-13T22:39:32.998Z,12.88
2023-05-13T22:41:59.249Z,11.75
2023-05-13T22:44:25.476Z,12.23
2023-05-13T22:46:52.849Z,12.45
2023-05-13T22:49:19.176Z,12.35
2023-05-13T22:51:45.408Z,15.25
2023-05-13T22:54:11.624Z,12.07
2023-05-13T22:56:37.926Z,11.57
2023-05-13T22:59:04.438Z,10.38
2023-05-13T23:01:31.007Z,12.60
2023-05-13T23:03:57.264Z,13.48
2023-05-13T23:06:23.523Z,12.57
2023-05-13T23:08:49.723Z,14.60
2023-05-13T23:11:15.924Z,11.40
2023-05-13T23:13:42.110Z,11.43
2023-05-13T23:16:08.350Z,12.27
2023-05-13T23:18:34.574Z,11.82
2023-05-13T23:21:01.429Z,12.43
2023-05-13T23:23:27.647Z,11.38
2023-05-13T23:25:53.852Z,12.13
2023-05-13T23:28:20.045Z,12.85
2023-05-13T23:30:46.260Z,12.25
2023-05-13T23:33:12.456Z,12.50
2023-05-13T23:35:38.739Z,12.02
2023-05-13T23:38:04.939Z,13.18
2023-05-13T23:40:31.214Z,13.50
2023-05-13T23:42:57.486Z,13.00
2023-05-13T23:45:23.685Z,10.60
2023-05-13T23:47:50.212Z,11.40
2023-05-13T23:50:16.467Z,10.90
2023-05-13T23:52:42.697Z,10.88
2023-05-13T23:55:08.942Z,10.18
2023-05-13T23:57:35.198Z,13.27
